sensor_id;sensor_type;location;lat;lon;timestamp;P1;durP1;ratioP1;P2;durP2;ratioP2
66012;SDS011;52783;50.502;8.190;2023-05-10T00:00:27;0.20;;;0.20;;
66012;SDS011;52783;50.502;8.190;2023-05-10T00:02:52;0.28;;;0.28;;
66012;SDS011;52783;50.502;8.190;2023-05-10T00:05:18;0.30;;;0.30;;
66012;SDS011;52783;50.502;8.190;2023-05-10T00:07:44;3.50;;;0.63;;
66012;SDS011;52783;50.502;8.190;2023-05-10T00:10:10;2.08;;;0.40;;
66012;SDS011;52783;50.502;8.190;2023-05-10T00:12:36;0.10;;;0.10;;
66012;SDS011;52783;50.502;8.190;2023-05-10T00:15:02;0.45;;;0.32;;
66012;SDS011;52783;50.502;8.190;2023-05-10T00:17:28;5.43;;;0.45;;
66012;SDS011;52783;50.502;8.190;2023-05-10T00:19:53;0.90;;;0.40;;
66012;SDS011;52783;50.502;8.190;2023-05-10T00:22:19;1.88;;;0.50;;
66012;SDS011;52783;50.502;8.190;2023-05-10T00:24:45;2.67;;;0.63;;
66012;SDS011;52783;50.502;8.190;2023-05-10T00:27:11;0.30;;;0.30;;
66012;SDS011;52783;50.502;8.190;2023-05-10T00:29:36;0.85;;;0.20;;
66012;SDS011;52783;50.502;8.190;2023-05-10T00:32:02;1.50;;;0.40;;
66012;SDS011;52783;50.502;8.190;2023-05-10T00:34:28;0.32;;;0.32;;
66012;SDS011;52783;50.502;8.190;2023-05-10T00:36:53;1.95;;;0.40;;
66012;SDS011;52783;50.502;8.190;2023-05-10T00:39:21;1.25;;;0.40;;
66012;SDS011;52783;50.502;8.190;2023-05-10T00:41:47;1.42;;;0.70;;
66012;SDS011;52783;50.502;8.190;2023-05-10T00:44:12;3.03;;;0.47;;
66012;SDS011;52783;50.502;8.190;2023-05-10T00:46:38;0.73;;;0.50;;
66012;SDS011;52783;50.502;8.190;2023-05-10T00:49:03;0.40;;;0.40;;
66012;SDS011;52783;50.502;8.190;2023-05-10T00:51:29;0.40;;;0.40;;
66012;SDS011;52783;50.502;8.190;2023-05-10T00:53:56;1.60;;;0.50;;
66012;SDS011;52783;50.502;8.190;2023-05-10T00:56:22;1.42;;;0.50;;
66012;SDS011;52783;50.502;8.190;2023-05-10T00:58:49;1.42;;;0.50;;
66012;SDS011;52783;50.502;8.190;2023-05-10T01:01:15;0.40;;;0.40;;
66012;SDS011;52783;50.502;8.190;2023-05-10T01:03:40;0.50;;;0.50;;
66012;SDS011;52783;50.502;8.190;2023-05-10T01:06:07;0.50;;;0.50;;
66012;SDS011;52783;50.502;8.190;2023-05-10T01:08:32;0.30;;;0.30;;
66012;SDS011;52783;50.502;8.190;2023-05-10T01:10:58;0.63;;;0.40;;
66012;SDS011;52783;50.502;8.190;2023-05-10T01:13:30;0.63;;;0.60;;
66012;SDS011;52783;50.502;8.190;2023-05-10T01:15:58;0.45;;;0.40;;
66012;SDS011;52783;50.502;8.190;2023-05-10T01:18:24;0.52;;;0.52;;
66012;SDS011;52783;50.502;8.190;2023-05-10T01:20:55;0.40;;;0.40;;
66012;SDS011;52783;50.502;8.190;2023-05-10T01:26:39;3.13;;;0.55;;
66012;SDS011;52783;50.502;8.190;2023-05-10T01:34:59;1.20;;;0.60;;
66012;SDS011;52783;50.502;8.190;2023-05-10T01:37:37;0.50;;;0.50;;
66012;SDS011;52783;50.502;8.190;2023-05-10T01:40:30;2.85;;;0.50;;
66012;SDS011;52783;50.502;8.190;2023-05-10T01:43:07;0.85;;;0.75;;
66012;SDS011;52783;50.502;8.190;2023-05-10T01:45:46;0.65;;;0.50;;
66012;SDS011;52783;50.502;8.190;2023-05-10T01:48:21;0.80;;;0.80;;
66012;SDS011;52783;50.502;8.190;2023-05-10T01:50:48;2.20;;;2.05;;
66012;SDS011;52783;50.502;8.190;2023-05-10T01:53:17;0.98;;;0.85;;
66012;SDS011;52783;50.502;8.190;2023-05-10T01:55:46;0.93;;;0.70;;
66012;SDS011;52783;50.502;8.190;2023-05-10T01:58:17;0.80;;;0.80;;
66012;SDS011;52783;50.502;8.190;2023-05-10T02:00:59;1.40;;;1.10;;
66012;SDS011;52783;50.502;8.190;2023-05-10T02:03:28;1.00;;;1.00;;
66012;SDS011;52783;50.502;8.190;2023-05-10T02:05:56;1.95;;;1.00;;
66012;SDS011;52783;50.502;8.190;2023-05-10T02:08:22;1.20;;;1.05;;
66012;SDS011;52783;50.502;8.190;2023-05-10T02:10:50;5.97;;;0.90;;
66012;SDS011;52783;50.502;8.190;2023-05-10T02:13:18;1.15;;;1.10;;
66012;SDS011;52783;50.502;8.190;2023-05-10T02:15:46;6.38;;;1.00;;
66012;SDS011;52783;50.502;8.190;2023-05-10T02:18:13;3.22;;;0.90;;
66012;SDS011;52783;50.502;8.190;2023-05-10T02:20:40;1.00;;;1.00;;
66012;SDS011;52783;50.502;8.190;2023-05-10T02:23:08;1.67;;;1.10;;
66012;SDS011;52783;50.502;8.190;2023-05-10T02:25:34;1.05;;;0.75;;
66012;SDS011;52783;50.502;8.190;2023-05-10T02:28:02;1.40;;;0.80;;
66012;SDS011;52783;50.502;8.190;2023-05-10T02:30:30;1.25;;;1.10;;
66012;SDS011;52783;50.502;8.190;2023-05-10T02:32:57;2.28;;;0.80;;
66012;SDS011;52783;50.502;8.190;2023-05-10T02:35:23;1.25;;;1.00;;
66012;SDS011;52783;50.502;8.190;2023-05-10T02:37:51;5.20;;;3.40;;
66012;SDS011;52783;50.502;8.190;2023-05-10T02:40:18;2.25;;;1.90;;
66012;SDS011;52783;50.502;8.190;2023-05-10T02:42:47;5.90;;;1.40;;
66012;SDS011;52783;50.502;8.190;2023-05-10T02:45:15;1.45;;;1.25;;
66012;SDS011;52783;50.502;8.190;2023-05-10T02:47:44;1.05;;;1.05;;
66012;SDS011;52783;50.502;8.190;2023-05-10T02:50:10;4.32;;;1.50;;
66012;SDS011;52783;50.502;8.190;2023-05-10T02:52:39;2.10;;;1.27;;
66012;SDS011;52783;50.502;8.190;2023-05-10T02:55:09;3.65;;;1.35;;
66012;SDS011;52783;50.502;8.190;2023-05-10T02:57:38;2.92;;;1.70;;
66012;SDS011;52783;50.502;8.190;2023-05-10T03:00:08;2.25;;;1.75;;
66012;SDS011;52783;50.502;8.190;2023-05-10T03:02:34;2.30;;;1.98;;
66012;SDS011;52783;50.502;8.190;2023-05-10T03:04:59;3.53;;;2.05;;
66012;SDS011;52783;50.502;8.190;2023-05-10T03:07:25;4.00;;;2.10;;
66012;SDS011;52783;50.502;8.190;2023-05-10T03:09:50;2.08;;;1.95;;
66012;SDS011;52783;50.502;8.190;2023-05-10T03:12:20;4.88;;;2.30;;
66012;SDS011;52783;50.502;8.190;2023-05-10T03:15:04;3.75;;;2.00;;
66012;SDS011;52783;50.502;8.190;2023-05-10T03:17:36;5.72;;;2.22;;
66012;SDS011;52783;50.502;8.190;2023-05-10T03:20:11;5.25;;;2.92;;
66012;SDS011;52783;50.502;8.190;2023-05-10T03:22:44;6.55;;;2.60;;
66012;SDS011;52783;50.502;8.190;2023-05-10T03:25:11;4.20;;;2.83;;
66012;SDS011;52783;50.502;8.190;2023-05-10T03:27:41;5.78;;;3.00;;
66012;SDS011;52783;50.502;8.190;2023-05-10T03:30:08;5.10;;;3.47;;
66012;SDS011;52783;50.502;8.190;2023-05-10T03:32:37;6.35;;;3.60;;
66012;SDS011;52783;50.502;8.190;2023-05-10T03:35:09;9.98;;;4.55;;
66012;SDS011;52783;50.502;8.190;2023-05-10T03:37:35;9.25;;;3.97;;
66012;SDS011;52783;50.502;8.190;2023-05-10T03:40:01;11.63;;;4.13;;
66012;SDS011;52783;50.502;8.190;2023-05-10T03:42:27;11.88;;;4.30;;
66012;SDS011;52783;50.502;8.190;2023-05-10T03:44:53;12.35;;;4.10;;
66012;SDS011;52783;50.502;8.190;2023-05-10T03:47:18;10.05;;;4.15;;
66012;SDS011;52783;50.502;8.190;2023-05-10T03:49:44;4.88;;;3.40;;
66012;SDS011;52783;50.502;8.190;2023-05-10T03:52:10;6.05;;;3.53;;
66012;SDS011;52783;50.502;8.190;2023-05-10T03:54:35;6.60;;;2.67;;
66012;SDS011;52783;50.502;8.190;2023-05-10T03:57:01;4.03;;;2.85;;
66012;SDS011;52783;50.502;8.190;2023-05-10T03:59:27;4.03;;;2.67;;
66012;SDS011;52783;50.502;8.190;2023-05-10T04:01:53;5.00;;;2.30;;
66012;SDS011;52783;50.502;8.190;2023-05-10T04:04:19;2.45;;;2.25;;
66012;SDS011;52783;50.502;8.190;2023-05-10T04:06:45;3.13;;;2.65;;
66012;SDS011;52783;50.502;8.190;2023-05-10T04:09:11;4.00;;;2.40;;
66012;SDS011;52783;50.502;8.190;2023-05-10T04:11:37;4.20;;;2.17;;
66012;SDS011;52783;50.502;8.190;2023-05-10T04:14:02;6.43;;;2.88;;
66012;SDS011;52783;50.502;8.190;2023-05-10T04:16:28;3.67;;;2.20;;
66012;SDS011;52783;50.502;8.190;2023-05-10T04:18:53;2.33;;;2.20;;
66012;SDS011;52783;50.502;8.190;2023-05-10T04:21:19;3.33;;;2.50;;
66012;SDS011;52783;50.502;8.190;2023-05-10T04:23:45;2.25;;;2.10;;
66012;SDS011;52783;50.502;8.190;2023-05-10T04:26:11;3.97;;;2.53;;
66012;SDS011;52783;50.502;8.190;2023-05-10T04:28:36;3.15;;;2.50;;
66012;SDS011;52783;50.502;8.190;2023-05-10T04:31:06;2.95;;;2.40;;
66012;SDS011;52783;50.502;8.190;2023-05-10T04:33:33;5.05;;;2.30;;
66012;SDS011;52783;50.502;8.190;2023-05-10T04:36:00;5.28;;;2.45;;
66012;SDS011;52783;50.502;8.190;2023-05-10T04:38:26;3.13;;;2.33;;
66012;SDS011;52783;50.502;8.190;2023-05-10T04:40:52;2.13;;;2.03;;
66012;SDS011;52783;50.502;8.190;2023-05-10T04:43:18;2.55;;;2.33;;
66012;SDS011;52783;50.502;8.190;2023-05-10T04:45:44;5.07;;;2.40;;
66012;SDS011;52783;50.502;8.190;2023-05-10T04:48:09;2.38;;;2.17;;
66012;SDS011;52783;50.502;8.190;2023-05-10T04:50:35;8.77;;;2.22;;
66012;SDS011;52783;50.502;8.190;2023-05-10T04:53:01;5.60;;;2.40;;
66012;SDS011;52783;50.502;8.190;2023-05-10T04:55:26;5.97;;;2.10;;
66012;SDS011;52783;50.502;8.190;2023-05-10T04:57:52;4.72;;;2.50;;
66012;SDS011;52783;50.502;8.190;2023-05-10T05:00:20;2.08;;;1.98;;
66012;SDS011;52783;50.502;8.190;2023-05-10T05:02:45;5.47;;;2.17;;
66012;SDS011;52783;50.502;8.190;2023-05-10T05:05:11;2.33;;;1.98;;
66012;SDS011;52783;50.502;8.190;2023-05-10T05:07:37;8.15;;;2.00;;
66012;SDS011;52783;50.502;8.190;2023-05-10T05:10:06;6.45;;;3.13;;
66012;SDS011;52783;50.502;8.190;2023-05-10T05:12:32;1.90;;;1.80;;
66012;SDS011;52783;50.502;8.190;2023-05-10T05:14:58;3.70;;;1.90;;
66012;SDS011;52783;50.502;8.190;2023-05-10T05:17:23;4.20;;;2.05;;
66012;SDS011;52783;50.502;8.190;2023-05-10T05:19:49;10.20;;;2.10;;
66012;SDS011;52783;50.502;8.190;2023-05-10T05:22:14;4.93;;;2.05;;
66012;SDS011;52783;50.502;8.190;2023-05-10T05:24:40;6.38;;;2.00;;
66012;SDS011;52783;50.502;8.190;2023-05-10T05:27:06;2.78;;;2.15;;
66012;SDS011;52783;50.502;8.190;2023-05-10T05:29:32;1.60;;;1.50;;
66012;SDS011;52783;50.502;8.190;2023-05-10T05:31:57;2.03;;;1.83;;
66012;SDS011;52783;50.502;8.190;2023-05-10T05:34:23;2.80;;;1.80;;
66012;SDS011;52783;50.502;8.190;2023-05-10T05:36:49;2.80;;;2.00;;
66012;SDS011;52783;50.502;8.190;2023-05-10T05:39:15;2.95;;;2.05;;
66012;SDS011;52783;50.502;8.190;2023-05-10T05:41:40;3.85;;;1.95;;
66012;SDS011;52783;50.502;8.190;2023-05-10T05:44:06;2.17;;;1.98;;
66012;SDS011;52783;50.502;8.190;2023-05-10T05:46:32;3.03;;;2.25;;
66012;SDS011;52783;50.502;8.190;2023-05-10T05:48:57;3.78;;;2.20;;
66012;SDS011;52783;50.502;8.190;2023-05-10T05:51:23;3.88;;;2.45;;
66012;SDS011;52783;50.502;8.190;2023-05-10T05:53:48;8.90;;;2.35;;
66012;SDS011;52783;50.502;8.190;2023-05-10T05:56:14;2.67;;;2.40;;
66012;SDS011;52783;50.502;8.190;2023-05-10T05:58:39;3.75;;;2.30;;
66012;SDS011;52783;50.502;8.190;2023-05-10T06:01:05;4.28;;;2.60;;
66012;SDS011;52783;50.502;8.190;2023-05-10T06:03:31;5.35;;;3.17;;
66012;SDS011;52783;50.502;8.190;2023-05-10T06:05:57;5.30;;;3.47;;
66012;SDS011;52783;50.502;8.190;2023-05-10T06:08:23;6.15;;;3.72;;
66012;SDS011;52783;50.502;8.190;2023-05-10T06:10:48;4.53;;;3.42;;
66012;SDS011;52783;50.502;8.190;2023-05-10T06:13:14;6.82;;;3.33;;
66012;SDS011;52783;50.502;8.190;2023-05-10T06:15:40;6.60;;;3.13;;
66012;SDS011;52783;50.502;8.190;2023-05-10T06:18:06;4.80;;;3.00;;
66012;SDS011;52783;50.502;8.190;2023-05-10T06:20:31;9.38;;;3.15;;
66012;SDS011;52783;50.502;8.190;2023-05-10T06:22:57;6.05;;;3.00;;
66012;SDS011;52783;50.502;8.190;2023-05-10T06:25:23;2.90;;;2.63;;
66012;SDS011;52783;50.502;8.190;2023-05-10T06:27:48;4.65;;;2.92;;
66012;SDS011;52783;50.502;8.190;2023-05-10T06:30:14;2.80;;;2.30;;
66012;SDS011;52783;50.502;8.190;2023-05-10T06:32:40;3.35;;;2.20;;
66012;SDS011;52783;50.502;8.190;2023-05-10T06:35:06;2.20;;;2.00;;
66012;SDS011;52783;50.502;8.190;2023-05-10T06:37:32;2.28;;;2.08;;
66012;SDS011;52783;50.502;8.190;2023-05-10T06:39:59;2.13;;;1.92;;
66012;SDS011;52783;50.502;8.190;2023-05-10T06:42:25;2.72;;;2.05;;
66012;SDS011;52783;50.502;8.190;2023-05-10T06:44:52;3.28;;;1.42;;
66012;SDS011;52783;50.502;8.190;2023-05-10T06:47:17;3.28;;;1.70;;
66012;SDS011;52783;50.502;8.190;2023-05-10T06:49:43;1.25;;;1.25;;
66012;SDS011;52783;50.502;8.190;2023-05-10T06:52:08;1.98;;;1.48;;
66012;SDS011;52783;50.502;8.190;2023-05-10T06:54:34;1.73;;;1.63;;
66012;SDS011;52783;50.502;8.190;2023-05-10T06:56:59;2.15;;;1.45;;
66012;SDS011;52783;50.502;8.190;2023-05-10T06:59:25;2.25;;;1.35;;
66012;SDS011;52783;50.502;8.190;2023-05-10T07:01:51;3.08;;;1.80;;
66012;SDS011;52783;50.502;8.190;2023-05-10T07:04:16;2.75;;;2.15;;
66012;SDS011;52783;50.502;8.190;2023-05-10T07:06:42;4.22;;;2.42;;
66012;SDS011;52783;50.502;8.190;2023-05-10T07:09:08;3.05;;;2.25;;
66012;SDS011;52783;50.502;8.190;2023-05-10T07:11:34;3.72;;;2.33;;
66012;SDS011;52783;50.502;8.190;2023-05-10T07:13:59;3.00;;;2.60;;
66012;SDS011;52783;50.502;8.190;2023-05-10T07:16:25;4.60;;;2.20;;
66012;SDS011;52783;50.502;8.190;2023-05-10T07:18:51;4.35;;;2.42;;
66012;SDS011;52783;50.502;8.190;2023-05-10T07:21:18;4.45;;;2.50;;
66012;SDS011;52783;50.502;8.190;2023-05-10T07:23:43;4.40;;;2.83;;
66012;SDS011;52783;50.502;8.190;2023-05-10T07:26:09;4.85;;;2.40;;
66012;SDS011;52783;50.502;8.190;2023-05-10T07:28:35;6.13;;;2.67;;
66012;SDS011;52783;50.502;8.190;2023-05-10T07:31:02;3.38;;;2.45;;
66012;SDS011;52783;50.502;8.190;2023-05-10T07:33:28;3.50;;;2.33;;
66012;SDS011;52783;50.502;8.190;2023-05-10T07:35:53;5.80;;;2.55;;
66012;SDS011;52783;50.502;8.190;2023-05-10T07:38:19;4.82;;;2.20;;
66012;SDS011;52783;50.502;8.190;2023-05-10T07:40:45;6.65;;;2.47;;
66012;SDS011;52783;50.502;8.190;2023-05-10T07:43:10;2.22;;;2.03;;
66012;SDS011;52783;50.502;8.190;2023-05-10T07:45:36;6.75;;;1.80;;
66012;SDS011;52783;50.502;8.190;2023-05-10T07:48:01;4.68;;;2.03;;
66012;SDS011;52783;50.502;8.190;2023-05-10T07:50:27;4.43;;;1.73;;
66012;SDS011;52783;50.502;8.190;2023-05-10T07:52:53;1.95;;;1.40;;
66012;SDS011;52783;50.502;8.190;2023-05-10T07:55:19;1.88;;;1.55;;
66012;SDS011;52783;50.502;8.190;2023-05-10T07:57:46;2.03;;;1.67;;
66012;SDS011;52783;50.502;8.190;2023-05-10T08:00:12;3.80;;;1.88;;
66012;SDS011;52783;50.502;8.190;2023-05-10T08:02:41;5.97;;;1.80;;
66012;SDS011;52783;50.502;8.190;2023-05-10T08:05:07;1.60;;;1.50;;
66012;SDS011;52783;50.502;8.190;2023-05-10T08:07:33;2.10;;;1.80;;
66012;SDS011;52783;50.502;8.190;2023-05-10T08:09:58;2.42;;;2.08;;
66012;SDS011;52783;50.502;8.190;2023-05-10T08:12:24;2.00;;;1.90;;
66012;SDS011;52783;50.502;8.190;2023-05-10T08:14:50;3.08;;;1.60;;
66012;SDS011;52783;50.502;8.190;2023-05-10T08:17:15;3.45;;;2.17;;
66012;SDS011;52783;50.502;8.190;2023-05-10T08:19:41;2.38;;;1.77;;
66012;SDS011;52783;50.502;8.190;2023-05-10T08:22:06;6.03;;;2.20;;
66012;SDS011;52783;50.502;8.190;2023-05-10T08:24:32;7.25;;;2.17;;
66012;SDS011;52783;50.502;8.190;2023-05-10T08:26:59;2.65;;;2.20;;
66012;SDS011;52783;50.502;8.190;2023-05-10T08:29:25;10.45;;;2.60;;
66012;SDS011;52783;50.502;8.190;2023-05-10T08:31:51;4.10;;;2.28;;
66012;SDS011;52783;50.502;8.190;2023-05-10T08:34:16;3.00;;;2.30;;
66012;SDS011;52783;50.502;8.190;2023-05-10T08:36:42;3.75;;;2.50;;
66012;SDS011;52783;50.502;8.190;2023-05-10T08:39:07;4.40;;;2.53;;
66012;SDS011;52783;50.502;8.190;2023-05-10T08:41:34;4.32;;;2.40;;
66012;SDS011;52783;50.502;8.190;2023-05-10T08:44:03;3.28;;;2.00;;
66012;SDS011;52783;50.502;8.190;2023-05-10T08:46:30;4.85;;;2.13;;
66012;SDS011;52783;50.502;8.190;2023-05-10T08:48:58;3.97;;;2.20;;
66012;SDS011;52783;50.502;8.190;2023-05-10T08:51:29;4.20;;;2.30;;
66012;SDS011;52783;50.502;8.190;2023-05-10T08:53:58;5.05;;;2.60;;
66012;SDS011;52783;50.502;8.190;2023-05-10T08:56:24;4.93;;;2.22;;
66012;SDS011;52783;50.502;8.190;2023-05-10T08:58:50;5.40;;;2.58;;
66012;SDS011;52783;50.502;8.190;2023-05-10T09:01:16;3.17;;;2.33;;
66012;SDS011;52783;50.502;8.190;2023-05-10T09:03:45;3.65;;;2.53;;
66012;SDS011;52783;50.502;8.190;2023-05-10T09:06:12;5.68;;;2.90;;
66012;SDS011;52783;50.502;8.190;2023-05-10T09:08:38;2.85;;;2.50;;
66012;SDS011;52783;50.502;8.190;2023-05-10T09:11:06;4.43;;;2.83;;
66012;SDS011;52783;50.502;8.190;2023-05-10T09:13:32;8.38;;;3.03;;
66012;SDS011;52783;50.502;8.190;2023-05-10T09:15:58;5.47;;;2.90;;
66012;SDS011;52783;50.502;8.190;2023-05-10T09:18:24;6.45;;;2.67;;
66012;SDS011;52783;50.502;8.190;2023-05-10T09:20:50;3.28;;;2.53;;
66012;SDS011;52783;50.502;8.190;2023-05-10T09:23:16;4.35;;;2.97;;
66012;SDS011;52783;50.502;8.190;2023-05-10T09:25:41;7.97;;;2.85;;
66012;SDS011;52783;50.502;8.190;2023-05-10T09:28:07;5.28;;;2.80;;
66012;SDS011;52783;50.502;8.190;2023-05-10T09:30:34;6.60;;;3.08;;
66012;SDS011;52783;50.502;8.190;2023-05-10T09:33:00;4.13;;;2.72;;
66012;SDS011;52783;50.502;8.190;2023-05-10T09:35:32;6.53;;;2.85;;
66012;SDS011;52783;50.502;8.190;2023-05-10T09:38:04;5.28;;;2.80;;
66012;SDS011;52783;50.502;8.190;2023-05-10T09:43:08;5.78;;;2.67;;
66012;SDS011;52783;50.502;8.190;2023-05-10T09:45:35;4.47;;;2.50;;
66012;SDS011;52783;50.502;8.190;2023-05-10T09:48:02;4.40;;;2.10;;
66012;SDS011;52783;50.502;8.190;2023-05-10T09:50:29;4.45;;;1.90;;
66012;SDS011;52783;50.502;8.190;2023-05-10T09:52:58;3.83;;;2.17;;
66012;SDS011;52783;50.502;8.190;2023-05-10T09:58:14;5.82;;;2.42;;
66012;SDS011;52783;50.502;8.190;2023-05-10T10:00:40;8.35;;;2.30;;
66012;SDS011;52783;50.502;8.190;2023-05-10T10:03:11;3.42;;;1.92;;
66012;SDS011;52783;50.502;8.190;2023-05-10T10:05:39;1.65;;;1.35;;
66012;SDS011;52783;50.502;8.190;2023-05-10T10:08:07;3.75;;;1.77;;
66012;SDS011;52783;50.502;8.190;2023-05-10T10:10:33;4.97;;;2.22;;
66012;SDS011;52783;50.502;8.190;2023-05-10T10:12:59;2.35;;;1.70;;
66012;SDS011;52783;50.502;8.190;2023-05-10T10:15:25;5.90;;;2.05;;
66012;SDS011;52783;50.502;8.190;2023-05-10T10:17:51;5.22;;;1.95;;
66012;SDS011;52783;50.502;8.190;2023-05-10T10:20:18;5.05;;;2.50;;
66012;SDS011;52783;50.502;8.190;2023-05-10T10:22:46;5.20;;;2.30;;
66012;SDS011;52783;50.502;8.190;2023-05-10T10:25:14;8.52;;;2.53;;
66012;SDS011;52783;50.502;8.190;2023-05-10T10:30:23;7.88;;;2.10;;
66012;SDS011;52783;50.502;8.190;2023-05-10T10:36:03;3.67;;;1.83;;
66012;SDS011;52783;50.502;8.190;2023-05-10T10:41:29;3.72;;;1.95;;
66012;SDS011;52783;50.502;8.190;2023-05-10T10:49:24;6.68;;;1.90;;
66012;SDS011;52783;50.502;8.190;2023-05-10T10:54:38;1.52;;;1.17;;
66012;SDS011;52783;50.502;8.190;2023-05-10T10:57:13;0.80;;;0.65;;
66012;SDS011;52783;50.502;8.190;2023-05-10T10:59:43;1.75;;;1.08;;
66012;SDS011;52783;50.502;8.190;2023-05-10T11:02:08;1.23;;;0.65;;
66012;SDS011;52783;50.502;8.190;2023-05-10T11:04:43;1.77;;;0.90;;
66012;SDS011;52783;50.502;8.190;2023-05-10T11:07:17;5.30;;;1.30;;
66012;SDS011;52783;50.502;8.190;2023-05-10T11:09:44;4.20;;;1.17;;
66012;SDS011;52783;50.502;8.190;2023-05-10T11:12:12;0.88;;;0.88;;
66012;SDS011;52783;50.502;8.190;2023-05-10T11:14:37;0.93;;;0.73;;
66012;SDS011;52783;50.502;8.190;2023-05-10T11:17:21;1.88;;;1.10;;
66012;SDS011;52783;50.502;8.190;2023-05-10T11:22:52;3.70;;;0.80;;
66012;SDS011;52783;50.502;8.190;2023-05-10T11:25:19;2.83;;;1.13;;
66012;SDS011;52783;50.502;8.190;2023-05-10T11:27:46;2.25;;;0.95;;
66012;SDS011;52783;50.502;8.190;2023-05-10T11:30:13;2.10;;;1.15;;
66012;SDS011;52783;50.502;8.190;2023-05-10T11:32:40;3.03;;;1.25;;
66012;SDS011;52783;50.502;8.190;2023-05-10T11:35:09;1.60;;;1.40;;
66012;SDS011;52783;50.502;8.190;2023-05-10T11:37:36;6.13;;;1.10;;
66012;SDS011;52783;50.502;8.190;2023-05-10T11:40:06;1.30;;;1.20;;
66012;SDS011;52783;50.502;8.190;2023-05-10T11:42:38;3.25;;;1.30;;
66012;SDS011;52783;50.502;8.190;2023-05-10T11:45:04;1.75;;;1.45;;
66012;SDS011;52783;50.502;8.190;2023-05-10T11:47:30;3.33;;;1.05;;
66012;SDS011;52783;50.502;8.190;2023-05-10T11:49:56;4.00;;;1.33;;
66012;SDS011;52783;50.502;8.190;2023-05-10T11:52:22;2.92;;;1.45;;
66012;SDS011;52783;50.502;8.190;2023-05-10T11:54:52;0.60;;;0.60;;
66012;SDS011;52783;50.502;8.190;2023-05-10T11:57:18;1.15;;;0.60;;
66012;SDS011;52783;50.502;8.190;2023-05-10T11:59:45;0.73;;;0.60;;
66012;SDS011;52783;50.502;8.190;2023-05-10T12:02:15;1.85;;;0.47;;
66012;SDS011;52783;50.502;8.190;2023-05-10T12:04:40;3.40;;;0.70;;
66012;SDS011;52783;50.502;8.190;2023-05-10T12:07:06;3.17;;;0.57;;
66012;SDS011;52783;50.502;8.190;2023-05-10T12:09:32;1.65;;;0.57;;
66012;SDS011;52783;50.502;8.190;2023-05-10T12:11:57;0.40;;;0.40;;
66012;SDS011;52783;50.502;8.190;2023-05-10T12:14:23;5.03;;;0.43;;
66012;SDS011;52783;50.502;8.190;2023-05-10T12:16:49;4.97;;;0.82;;
66012;SDS011;52783;50.502;8.190;2023-05-10T12:19:18;1.95;;;0.70;;
66012;SDS011;52783;50.502;8.190;2023-05-10T12:21:45;0.52;;;0.40;;
66012;SDS011;52783;50.502;8.190;2023-05-10T12:24:10;7.93;;;0.80;;
66012;SDS011;52783;50.502;8.190;2023-05-10T12:26:37;1.15;;;0.75;;
66012;SDS011;52783;50.502;8.190;2023-05-10T12:29:12;2.03;;;0.93;;
66012;SDS011;52783;50.502;8.190;2023-05-10T12:31:50;1.17;;;0.50;;
66012;SDS011;52783;50.502;8.190;2023-05-10T12:34:24;3.38;;;0.55;;
66012;SDS011;52783;50.502;8.190;2023-05-10T12:36:58;1.77;;;0.80;;
66012;SDS011;52783;50.502;8.190;2023-05-10T12:39:24;0.80;;;0.55;;
66012;SDS011;52783;50.502;8.190;2023-05-10T12:41:50;2.33;;;1.05;;
66012;SDS011;52783;50.502;8.190;2023-05-10T12:44:16;1.55;;;0.93;;
66012;SDS011;52783;50.502;8.190;2023-05-10T12:46:43;2.63;;;0.60;;
66012;SDS011;52783;50.502;8.190;2023-05-10T12:49:08;0.95;;;0.65;;
66012;SDS011;52783;50.502;8.190;2023-05-10T12:51:34;3.88;;;0.73;;
66012;SDS011;52783;50.502;8.190;2023-05-10T12:54:00;3.45;;;0.73;;
66012;SDS011;52783;50.502;8.190;2023-05-10T12:56:25;0.70;;;0.70;;
66012;SDS011;52783;50.502;8.190;2023-05-10T12:58:51;3.90;;;0.80;;
66012;SDS011;52783;50.502;8.190;2023-05-10T13:01:16;5.75;;;0.88;;
66012;SDS011;52783;50.502;8.190;2023-05-10T13:03:42;3.05;;;0.93;;
66012;SDS011;52783;50.502;8.190;2023-05-10T13:06:10;0.80;;;0.70;;
66012;SDS011;52783;50.502;8.190;2023-05-10T13:08:38;1.65;;;0.60;;
66012;SDS011;52783;50.502;8.190;2023-05-10T13:11:03;3.35;;;1.02;;
66012;SDS011;52783;50.502;8.190;2023-05-10T13:13:30;0.85;;;0.57;;
66012;SDS011;52783;50.502;8.190;2023-05-10T13:15:56;0.40;;;0.40;;
66012;SDS011;52783;50.502;8.190;2023-05-10T13:18:21;5.05;;;0.30;;
66012;SDS011;52783;50.502;8.190;2023-05-10T13:20:47;0.75;;;0.70;;
66012;SDS011;52783;50.502;8.190;2023-05-10T13:23:14;0.65;;;0.57;;
66012;SDS011;52783;50.502;8.190;2023-05-10T13:25:40;0.43;;;0.43;;
66012;SDS011;52783;50.502;8.190;2023-05-10T13:28:05;1.45;;;0.35;;
66012;SDS011;52783;50.502;8.190;2023-05-10T13:30:31;1.75;;;0.73;;
66012;SDS011;52783;50.502;8.190;2023-05-10T13:32:56;0.75;;;0.40;;
66012;SDS011;52783;50.502;8.190;2023-05-10T13:35:22;2.40;;;0.43;;
66012;SDS011;52783;50.502;8.190;2023-05-10T13:37:47;2.72;;;0.50;;
66012;SDS011;52783;50.502;8.190;2023-05-10T13:40:13;1.55;;;0.50;;
66012;SDS011;52783;50.502;8.190;2023-05-10T13:42:40;0.90;;;0.50;;
66012;SDS011;52783;50.502;8.190;2023-05-10T13:45:06;1.85;;;0.80;;
66012;SDS011;52783;50.502;8.190;2023-05-10T13:47:32;8.10;;;1.30;;
66012;SDS011;52783;50.502;8.190;2023-05-10T13:49:57;0.57;;;0.47;;
66012;SDS011;52783;50.502;8.190;2023-05-10T13:52:23;4.88;;;1.08;;
66012;SDS011;52783;50.502;8.190;2023-05-10T13:54:48;5.05;;;1.70;;
66012;SDS011;52783;50.502;8.190;2023-05-10T13:57:14;7.40;;;1.30;;
66012;SDS011;52783;50.502;8.190;2023-05-10T13:59:41;5.32;;;1.50;;
66012;SDS011;52783;50.502;8.190;2023-05-10T14:02:07;11.13;;;2.10;;
66012;SDS011;52783;50.502;8.190;2023-05-10T14:04:32;27.63;;;9.55;;
66012;SDS011;52783;50.502;8.190;2023-05-10T14:07:00;3.90;;;1.50;;
66012;SDS011;52783;50.502;8.190;2023-05-10T14:09:25;3.30;;;1.20;;
66012;SDS011;52783;50.502;8.190;2023-05-10T14:11:51;2.15;;;0.85;;
66012;SDS011;52783;50.502;8.190;2023-05-10T14:14:17;2.42;;;1.45;;
66012;SDS011;52783;50.502;8.190;2023-05-10T14:16:43;6.78;;;1.48;;
66012;SDS011;52783;50.502;8.190;2023-05-10T14:19:09;1.52;;;1.25;;
66012;SDS011;52783;50.502;8.190;2023-05-10T14:21:35;2.55;;;1.17;;
66012;SDS011;52783;50.502;8.190;2023-05-10T14:24:00;6.18;;;1.05;;
66012;SDS011;52783;50.502;8.190;2023-05-10T14:26:26;3.05;;;1.17;;
66012;SDS011;52783;50.502;8.190;2023-05-10T14:28:52;5.82;;;1.23;;
66012;SDS011;52783;50.502;8.190;2023-05-10T14:31:17;6.55;;;1.48;;
66012;SDS011;52783;50.502;8.190;2023-05-10T14:33:45;2.30;;;1.20;;
66012;SDS011;52783;50.502;8.190;2023-05-10T14:36:11;1.73;;;1.17;;
66012;SDS011;52783;50.502;8.190;2023-05-10T14:38:36;0.85;;;0.85;;
66012;SDS011;52783;50.502;8.190;2023-05-10T14:41:02;1.05;;;0.88;;
66012;SDS011;52783;50.502;8.190;2023-05-10T14:43:27;1.00;;;1.00;;
66012;SDS011;52783;50.502;8.190;2023-05-10T14:45:53;0.90;;;0.90;;
66012;SDS011;52783;50.502;8.190;2023-05-10T14:48:19;0.63;;;0.63;;
66012;SDS011;52783;50.502;8.190;2023-05-10T14:50:46;2.33;;;0.80;;
66012;SDS011;52783;50.502;8.190;2023-05-10T14:53:11;1.20;;;0.90;;
66012;SDS011;52783;50.502;8.190;2023-05-10T14:55:37;2.45;;;1.08;;
66012;SDS011;52783;50.502;8.190;2023-05-10T14:58:04;2.13;;;1.00;;
66012;SDS011;52783;50.502;8.190;2023-05-10T15:00:29;1.35;;;1.00;;
66012;SDS011;52783;50.502;8.190;2023-05-10T15:02:55;1.00;;;0.85;;
66012;SDS011;52783;50.502;8.190;2023-05-10T15:05:21;0.88;;;0.88;;
66012;SDS011;52783;50.502;8.190;2023-05-10T15:07:46;0.38;;;0.38;;
66012;SDS011;52783;50.502;8.190;2023-05-10T15:10:12;1.00;;;1.00;;
66012;SDS011;52783;50.502;8.190;2023-05-10T15:12:38;1.80;;;0.70;;
66012;SDS011;52783;50.502;8.190;2023-05-10T15:15:04;0.28;;;0.28;;
66012;SDS011;52783;50.502;8.190;2023-05-10T15:17:31;1.35;;;0.75;;
66012;SDS011;52783;50.502;8.190;2023-05-10T15:19:57;2.15;;;0.98;;